createdAt,value
2023-05-01T00:00:07.291Z,100.00
2023-05-01T00:02:54.350Z,100.00
2023-05-01T00:05:42.685Z,100.00
2023-05-01T00:08:29.266Z,100.00
2023-05-01T00:11:15.756Z,100.00
2023-05-01T00:14:02.066Z,100.00
2023-05-01T00:16:48.355Z,100.00
2023-05-01T00:19:34.606Z,100.00
2023-05-01T00:22:22.273Z,100.00
2023-05-01T00:25:10.597Z,100.00
2023-05-01T00:27:57.135Z,100.00
2023-05-01T00:30:43.523Z,100.00
2023-05-01T00:33:29.757Z,100.00
2023-05-01T00:36:16.081Z,100.00
2023-05-01T00:39:04.189Z,100.00
2023-05-01T00:41:50.725Z,100.00
2023-05-01T00:44:37.074Z,100.00
2023-05-01T00:47:23.827Z,100.00
2023-05-01T00:50:11.005Z,100.00
2023-05-01T00:52:57.977Z,100.00
2023-05-01T00:55:46.622Z,100.00
2023-05-01T00:58:33.588Z,100.00
2023-05-01T01:01:20.976Z,100.00
2023-05-01T01:04:08.154Z,100.00
2023-05-01T01:07:09.204Z,100.00
2023-05-01T01:10:04.391Z,100.00
2023-05-01T01:13:02.041Z,100.00
2023-05-01T01:15:54.712Z,100.00
2023-05-01T01:18:49.505Z,100.00
2023-05-01T01:21:39.388Z,100.00
2023-05-01T01:24:57.427Z,100.00
2023-05-01T01:28:05.729Z,100.00
2023-05-01T01:31:12.788Z,100.00
2023-05-01T01:34:08.952Z,100.00
2023-05-01T01:37:02.201Z,100.00
2023-05-01T01:39:54.038Z,100.00
2023-05-01T01:42:44.113Z,100.00
2023-05-01T01:45:37.801Z,100.00
2023-05-01T01:48:29.193Z,100.00
2023-05-01T01:51:20.534Z,100.00
2023-05-01T01:54:07.894Z,100.00
2023-05-01T01:56:56.355Z,100.00
2023-05-01T01:59:43.713Z,100.00
2023-05-01T02:02:31.622Z,100.00
2023-05-01T02:05:20.435Z,100.00
2023-05-01T02:08:11.132Z,100.00
2023-05-01T02:11:01.684Z,100.00
2023-05-01T02:13:50.760Z,100.00
2023-05-01T02:16:38.459Z,100.00
2023-05-01T02:19:26.209Z,100.00
2023-05-01T02:22:13.514Z,100.00
2023-05-01T02:25:03.345Z,100.00
2023-05-01T02:27:56.912Z,100.00
2023-05-01T02:30:43.401Z,100.00
2023-05-01T02:33:29.882Z,100.00
2023-05-01T02:36:17.167Z,100.00
2023-05-01T02:39:04.226Z,100.00
2023-05-01T02:41:56.071Z,100.00
2023-05-01T02:44:45.456Z,100.00
2023-05-01T02:47:34.440Z,100.00
2023-05-01T02:50:22.213Z,100.00
2023-05-01T02:53:09.648Z,100.00
2023-05-01T02:56:06.094Z,100.00
2023-05-01T02:58:54.252Z,100.00
2023-05-01T03:01:40.814Z,100.00
2023-05-01T03:04:27.297Z,100.00
2023-05-01T03:07:13.736Z,100.00
2023-05-01T03:10:00.656Z,100.00
2023-05-01T03:12:46.879Z,100.00
2023-05-01T03:15:34.360Z,100.00
2023-05-01T03:18:20.571Z,100.00
2023-05-01T03:21:06.883Z,100.00
2023-05-01T03:23:53.479Z,100.00
2023-05-01T03:26:39.994Z,100.00
2023-05-01T03:29:27.127Z,100.00
2023-05-01T03:32:16.491Z,100.00
2023-05-01T03:35:03.248Z,100.00
2023-05-01T03:37:49.733Z,100.00
2023-05-01T03:40:56.016Z,100.00
2023-05-01T03:44:02.958Z,100.00
2023-05-01T03:46:53.512Z,100.00
2023-05-01T03:49:45.221Z,100.00
2023-05-01T03:52:31.938Z,100.00
2023-05-01T03:55:18.552Z,100.00
2023-05-01T03:58:07.012Z,100.00
2023-05-01T04:00:56.938Z,100.00
2023-05-01T04:03:43.335Z,100.00
2023-05-01T04:06:31.174Z,100.00
2023-05-01T04:09:17.485Z,100.00
2023-05-01T04:12:03.589Z,100.00
2023-05-01T04:14:49.683Z,100.00
2023-05-01T04:17:36.828Z,100.00
2023-05-01T04:20:23.169Z,100.00
2023-05-01T04:23:10.897Z,100.00
2023-05-01T04:25:57.109Z,100.00
2023-05-01T04:28:43.282Z,100.00
2023-05-01T04:31:31.171Z,100.00
2023-05-01T04:34:17.778Z,100.00
2023-05-01T04:37:03.786Z,100.00
2023-05-01T04:39:51.925Z,100.00
2023-05-01T04:42:40.116Z,100.00
2023-05-01T04:45:29.854Z,100.00
2023-05-01T04:48:16.609Z,100.00
2023-05-01T04:51:04.086Z,100.00
2023-05-01T04:53:53.663Z,100.00
2023-05-01T04:56:44.089Z,100.00
2023-05-01T04:59:30.597Z,100.00
2023-05-01T05:02:19.041Z,100.00
2023-05-01T05:05:06.170Z,100.00
2023-05-01T05:07:52.408Z,100.00
2023-05-01T05:10:49.172Z,100.00
2023-05-01T05:13:49.940Z,100.00
2023-05-01T08:07:22.060Z,100.00
2023-05-01T08:10:10.357Z,100.00
2023-05-01T08:12:56.516Z,100.00
2023-05-01T08:15:43.223Z,100.00
2023-05-01T08:18:29.719Z,100.00
2023-05-01T08:21:16.193Z,100.00
2023-05-01T08:24:04.074Z,100.00
2023-05-01T08:27:16.353Z,100.00
2023-05-01T08:30:02.457Z,100.00
2023-05-01T08:32:49.178Z,100.00
2023-05-01T08:35:35.818Z,100.00
2023-05-01T08:42:43.777Z,100.00
2023-05-01T08:45:35.926Z,100.00
2023-05-01T08:48:23.433Z,100.00
2023-05-01T08:51:11.326Z,100.00
2023-05-01T08:54:00.480Z,100.00
2023-05-01T08:56:48.173Z,100.00
2023-05-01T08:59:37.104Z,100.00
2023-05-01T09:02:25.257Z,100.00
2023-05-01T09:05:12.173Z,100.00
2023-05-01T09:08:00.294Z,100.00
2023-05-01T09:10:49.229Z,100.00
2023-05-01T09:13:35.493Z,100.00
2023-05-01T09:16:23.405Z,100.00
2023-05-01T09:19:10.744Z,100.00
2023-05-01T09:21:57.529Z,100.00
2023-05-01T09:24:43.963Z,100.00
2023-05-01T09:27:34.619Z,100.00
2023-05-01T09:30:32.431Z,100.00
2023-05-01T09:33:20.648Z,100.00
2023-05-01T09:36:08.925Z,100.00
2023-05-01T09:38:55.475Z,100.00
2023-05-01T09:41:52.260Z,100.00
2023-05-01T09:44:42.825Z,100.00
2023-05-01T09:47:30.066Z,100.00
2023-05-01T09:50:30.482Z,100.00
2023-05-01T09:53:16.640Z,100.00
2023-05-01T09:56:03.259Z,100.00
2023-05-01T09:58:50.916Z,100.00
2023-05-01T10:01:42.966Z,100.00
2023-05-01T10:04:32.982Z,100.00
2023-05-01T10:07:20.614Z,100.00
2023-05-01T10:10:17.761Z,100.00
2023-05-01T10:13:14.641Z,100.00
2023-05-01T10:25:28.464Z,100.00
2023-05-01T10:28:15.380Z,100.00
2023-05-01T10:31:02.635Z,100.00
2023-05-01T10:33:50.265Z,100.00
2023-05-01T10:36:40.992Z,100.00
2023-05-01T10:39:34.488Z,100.00
2023-05-01T10:42:22.261Z,100.00
2023-05-01T10:45:29.780Z,100.00
2023-05-01T10:48:49.589Z,100.00
2023-05-01T10:51:36.187Z,100.00
2023-05-01T10:54:27.137Z,100.00
2023-05-01T10:57:44.737Z,100.00
2023-05-01T11:00:31.247Z,100.00
2023-05-01T11:03:35.884Z,100.00
2023-05-01T11:06:23.161Z,100.00
2023-05-01T11:09:37.196Z,100.00
2023-05-01T11:12:51.392Z,100.00
2023-05-01T11:15:40.399Z,100.00
2023-05-01T11:18:46.841Z,100.00
2023-05-01T11:21:34.389Z,100.00
2023-05-01T11:24:20.849Z,100.00
2023-05-01T11:27:08.347Z,100.00
2023-05-01T11:29:56.672Z,100.00
2023-05-01T11:32:45.288Z,100.00
2023-05-01T11:35:33.132Z,100.00
2023-05-01T11:38:19.936Z,100.00
2023-05-01T11:41:06.079Z,100.00
2023-05-01T11:43:53.994Z,100.00
2023-05-01T11:46:41.512Z,100.00
2023-05-01T11:49:29.218Z,100.00
2023-05-01T11:52:15.323Z,100.00
2023-05-01T11:55:03.841Z,100.00
2023-05-01T11:57:51.837Z,100.00
2023-05-01T12:00:39.922Z,100.00
2023-05-01T12:03:28.302Z,100.00
2023-05-01T12:06:15.035Z,100.00
2023-05-01T12:09:01.986Z,100.00
2023-05-01T12:11:52.282Z,100.00
2023-05-01T12:14:41.283Z,100.00
2023-05-01T12:17:28.354Z,100.00
2023-05-01T12:20:17.311Z,100.00
2023-05-01T12:23:05.922Z,100.00
2023-05-01T12:25:53.256Z,100.00
2023-05-01T12:28:39.548Z,100.00
2023-05-01T12:31:28.384Z,100.00
2023-05-01T12:34:16.262Z,100.00
2023-05-01T12:37:05.438Z,100.00
2023-05-01T12:39:52.153Z,100.00
2023-05-01T12:42:38.887Z,100.00
2023-05-01T12:45:26.161Z,100.00
2023-05-01T12:48:15.759Z,100.00
2023-05-01T12:51:02.584Z,100.00
2023-05-01T12:53:51.750Z,100.00
2023-05-01T12:56:38.794Z,100.00
2023-05-01T12:59:26.330Z,100.00
2023-05-01T13:02:15.862Z,100.00
2023-05-01T13:05:10.411Z,100.00
2023-05-01T13:07:57.150Z,100.00
2023-05-01T13:10:45.921Z,100.00
2023-05-01T13:13:35.150Z,100.00
2023-05-01T13:16:22.600Z,100.00
2023-05-01T13:19:10.533Z,100.00
2023-05-01T13:21:58.549Z,100.00
2023-05-01T13:24:45.533Z,100.00
2023-05-01T13:27:35.150Z,100.00
2023-05-01T13:30:22.779Z,100.00
2023-05-01T13:33:11.913Z,100.00
2023-05-01T13:35:58.431Z,100.00
2023-05-01T13:38:51.098Z,100.00
2023-05-01T13:41:43.209Z,100.00
2023-05-01T13:44:32.014Z,100.00
2023-05-01T13:47:19.675Z,100.00
2023-05-01T13:50:09.453Z,100.00
2023-05-01T13:52:55.859Z,100.00
2023-05-01T13:55:43.486Z,100.00
2023-05-01T13:58:30.264Z,100.00
2023-05-01T14:01:20.163Z,100.00
2023-05-01T14:04:12.203Z,100.00
2023-05-01T14:07:00.024Z,100.00
2023-05-01T14:09:51.064Z,100.00
2023-05-01T14:12:39.847Z,100.00
2023-05-01T14:15:26.547Z,100.00
2023-05-01T14:18:17.776Z,100.00
2023-05-01T14:21:04.753Z,100.00
2023-05-01T14:23:52.603Z,100.00
2023-05-01T14:26:43.019Z,100.00
2023-05-01T14:29:31.256Z,100.00
2023-05-01T14:32:17.974Z,100.00
2023-05-01T14:35:11.083Z,100.00
2023-05-01T14:38:01.650Z,100.00
2023-05-01T14:40:49.053Z,100.00
2023-05-01T14:43:38.562Z,100.00
2023-05-01T14:46:30.569Z,100.00
2023-05-01T14:49:21.859Z,100.00
2023-05-01T14:52:10.826Z,100.00
2023-05-01T14:54:58.313Z,100.00
2023-05-01T14:57:46.085Z,100.00
2023-05-01T15:03:43.819Z,100.00
2023-05-01T15:06:33.789Z,100.00
2023-05-01T15:09:24.586Z,100.00
2023-05-01T15:12:11.123Z,99.26
2023-05-01T15:14:57.968Z,96.63
2023-05-01T15:17:44.583Z,92.64
2023-05-01T15:20:34.017Z,93.61
2023-05-01T15:23:20.633Z,85.05
2023-05-01T15:26:14.780Z,93.99
2023-05-01T15:29:01.046Z,98.94
2023-05-01T15:32:10.676Z,94.63
2023-05-01T15:34:58.389Z,100.00
2023-05-01T15:37:45.030Z,97.74
2023-05-01T15:43:40.940Z,89.37
2023-05-01T15:46:28.833Z,89.35
2023-05-01T15:49:16.214Z,93.79
2023-05-01T15:52:02.803Z,97.55
2023-05-01T15:54:49.504Z,100.00
2023-05-01T15:57:36.040Z,100.00
2023-05-01T16:00:23.634Z,93.23
2023-05-01T16:03:10.439Z,93.04
2023-05-01T16:05:57.679Z,93.02
2023-05-01T16:08:44.305Z,100.00
2023-05-01T16:11:31.604Z,100.00
2023-05-01T16:14:23.023Z,100.00
2023-05-01T18:38:28.833Z,100.00
2023-05-01T18:41:15.440Z,100.00
2023-05-01T18:44:03.937Z,100.00
2023-05-01T18:46:50.536Z,100.00
2023-05-01T18:49:37.124Z,100.00
2023-05-01T18:52:23.600Z,100.00
2023-05-01T18:55:12.069Z,100.00
2023-05-01T18:57:58.367Z,100.00
2023-05-01T19:19:45.392Z,100.00
2023-05-01T19:22:31.808Z,100.00
2023-05-01T19:25:18.051Z,100.00
2023-05-01T19:28:04.647Z,100.00
2023-05-01T19:30:51.170Z,100.00
2023-05-01T19:33:37.866Z,100.00
2023-05-01T19:36:25.619Z,100.00
2023-05-01T19:39:12.814Z,100.00
2023-05-01T19:41:59.628Z,100.00
2023-05-01T19:44:47.033Z,100.00
2023-05-01T19:47:33.212Z,100.00
2023-05-01T19:50:19.993Z,100.00
2023-05-01T19:53:07.891Z,100.00
2023-05-01T19:55:54.326Z,100.00
2023-05-01T19:58:40.852Z,100.00
2023-05-01T20:46:37.176Z,100.00
2023-05-01T20:49:23.611Z,100.00
2023-05-01T20:52:10.261Z,100.00
2023-05-01T20:54:56.264Z,100.00
2023-05-01T20:57:42.541Z,100.00
2023-05-01T21:00:29.156Z,100.00
2023-05-01T21:03:17.225Z,100.00
2023-05-01T21:06:03.947Z,100.00
2023-05-01T21:08:50.452Z,100.00
2023-05-01T21:11:40.573Z,100.00
2023-05-01T21:14:28.535Z,100.00
2023-05-01T21:17:16.753Z,100.00
2023-05-01T21:20:06.112Z,100.00
2023-05-01T21:22:52.736Z,100.00
2023-05-01T21:25:39.375Z,100.00
2023-05-01T21:28:25.977Z,100.00
2023-05-01T21:31:13.147Z,100.00
2023-05-01T21:34:02.462Z,100.00
2023-05-01T21:36:50.119Z,100.00
2023-05-01T21:39:37.290Z,100.00
2023-05-01T21:42:23.509Z,100.00
2023-05-01T21:45:12.644Z,100.00
2023-05-01T21:47:59.483Z,100.00
2023-05-01T21:50:49.474Z,100.00
2023-05-01T21:53:39.888Z,100.00
2023-05-01T21:56:26.464Z,100.00
2023-05-01T21:59:12.787Z,100.00
2023-05-01T22:01:59.177Z,100.00
2023-05-01T22:04:45.458Z,100.00
2023-05-01T22:07:31.713Z,100.00
2023-05-01T22:10:19.832Z,100.00
2023-05-01T22:13:06.482Z,100.00
